sensor_id;sensor_type;location;lat;lon;timestamp;P1;durP1;ratioP1;P2;durP2;ratioP2
74473;SDS011;62922;-6.168;106.796;2022-11-25T00:01:28;28.65;;;9.35;;
74473;SDS011;62922;-6.168;106.796;2022-11-25T00:03:56;27.27;;;9.50;;
74473;SDS011;62922;-6.168;106.796;2022-11-25T00:08:54;30.65;;;9.52;;
74473;SDS011;62922;-6.168;106.796;2022-11-25T00:11:22;27.13;;;9.57;;
74473;SDS011;62922;-6.168;106.796;2022-11-25T00:13:48;33.92;;;9.27;;
74473;SDS011;62922;-6.168;106.796;2022-11-25T00:16:17;31.33;;;9.57;;
74473;SDS011;62922;-6.168;106.796;2022-11-25T00:18:45;28.88;;;9.02;;
74473;SDS011;62922;-6.168;106.796;2022-11-25T00:21:15;27.67;;;8.43;;
74473;SDS011;62922;-6.168;106.796;2022-11-25T00:24:03;32.80;;;8.52;;
74473;SDS011;62922;-6.168;106.796;2022-11-25T00:26:31;31.25;;;9.35;;
74473;SDS011;62922;-6.168;106.796;2022-11-25T00:29:01;34.97;;;9.77;;
74473;SDS011;62922;-6.168;106.796;2022-11-25T00:31:30;39.80;;;9.95;;
74473;SDS011;62922;-6.168;106.796;2022-11-25T00:34:00;31.77;;;9.73;;
74473;SDS011;62922;-6.168;106.796;2022-11-25T00:36:28;34.85;;;10.07;;
74473;SDS011;62922;-6.168;106.796;2022-11-25T00:38:57;33.30;;;9.55;;
74473;SDS011;62922;-6.168;106.796;2022-11-25T00:41:26;31.30;;;9.52;;
74473;SDS011;62922;-6.168;106.796;2022-11-25T00:43:56;37.60;;;10.80;;
74473;SDS011;62922;-6.168;106.796;2022-11-25T00:46:26;29.10;;;10.35;;
74473;SDS011;62922;-6.168;106.796;2022-11-25T00:48:52;26.83;;;9.23;;
74473;SDS011;62922;-6.168;106.796;2022-11-25T00:51:18;30.63;;;10.00;;
74473;SDS011;62922;-6.168;106.796;2022-11-25T00:53:45;31.50;;;9.77;;
74473;SDS011;62922;-6.168;106.796;2022-11-25T00:56:13;37.10;;;10.25;;
74473;SDS011;62922;-6.168;106.796;2022-11-25T00:58:40;29.58;;;10.82;;
74473;SDS011;62922;-6.168;106.796;2022-11-25T01:01:08;43.38;;;13.25;;
74473;SDS011;62922;-6.168;106.796;2022-11-25T01:03:34;36.00;;;11.75;;
74473;SDS011;62922;-6.168;106.796;2022-11-25T01:06:04;29.30;;;11.15;;
74473;SDS011;62922;-6.168;106.796;2022-11-25T01:08:35;30.98;;;10.75;;
74473;SDS011;62922;-6.168;106.796;2022-11-25T01:11:07;27.83;;;9.88;;
74473;SDS011;62922;-6.168;106.796;2022-11-25T01:13:35;28.42;;;9.88;;
74473;SDS011;62922;-6.168;106.796;2022-11-25T01:16:03;33.17;;;10.68;;
74473;SDS011;62922;-6.168;106.796;2022-11-25T01:18:32;30.55;;;10.27;;
74473;SDS011;62922;-6.168;106.796;2022-11-25T01:23:33;29.38;;;11.00;;
74473;SDS011;62922;-6.168;106.796;2022-11-25T01:26:01;29.90;;;11.15;;
74473;SDS011;62922;-6.168;106.796;2022-11-25T01:28:31;42.35;;;11.85;;
74473;SDS011;62922;-6.168;106.796;2022-11-25T01:30:58;29.70;;;10.85;;
74473;SDS011;62922;-6.168;106.796;2022-11-25T01:33:29;34.33;;;11.15;;
74473;SDS011;62922;-6.168;106.796;2022-11-25T01:36:04;34.88;;;12.70;;
74473;SDS011;62922;-6.168;106.796;2022-11-25T01:38:33;32.95;;;11.93;;
74473;SDS011;62922;-6.168;106.796;2022-11-25T01:41:00;40.00;;;12.07;;
74473;SDS011;62922;-6.168;106.796;2022-11-25T01:43:27;31.55;;;11.93;;
74473;SDS011;62922;-6.168;106.796;2022-11-25T01:45:56;36.35;;;12.70;;
74473;SDS011;62922;-6.168;106.796;2022-11-25T01:48:37;32.60;;;12.88;;
74473;SDS011;62922;-6.168;106.796;2022-11-25T01:51:04;34.15;;;12.25;;
74473;SDS011;62922;-6.168;106.796;2022-11-25T01:53:36;35.22;;;13.65;;
74473;SDS011;62922;-6.168;106.796;2022-11-25T01:56:03;35.13;;;13.27;;
74473;SDS011;62922;-6.168;106.796;2022-11-25T01:58:31;34.92;;;13.32;;
74473;SDS011;62922;-6.168;106.796;2022-11-25T02:01:00;46.50;;;14.68;;
74473;SDS011;62922;-6.168;106.796;2022-11-25T02:03:27;34.28;;;13.60;;
74473;SDS011;62922;-6.168;106.796;2022-11-25T02:08:32;40.65;;;14.73;;
74473;SDS011;62922;-6.168;106.796;2022-11-25T02:10:59;37.15;;;13.45;;
74473;SDS011;62922;-6.168;106.796;2022-11-25T02:13:31;36.33;;;14.07;;
74473;SDS011;62922;-6.168;106.796;2022-11-25T02:15:58;36.63;;;14.23;;
74473;SDS011;62922;-6.168;106.796;2022-11-25T02:18:24;35.78;;;13.95;;
74473;SDS011;62922;-6.168;106.796;2022-11-25T02:20:51;45.67;;;15.07;;
74473;SDS011;62922;-6.168;106.796;2022-11-25T02:23:23;40.03;;;13.65;;
74473;SDS011;62922;-6.168;106.796;2022-11-25T02:26:00;36.28;;;13.27;;
74473;SDS011;62922;-6.168;106.796;2022-11-25T02:28:30;27.98;;;12.13;;
74473;SDS011;62922;-6.168;106.796;2022-11-25T02:30:57;36.95;;;13.70;;
74473;SDS011;62922;-6.168;106.796;2022-11-25T02:33:24;78.03;;;19.08;;
74473;SDS011;62922;-6.168;106.796;2022-11-25T02:35:54;33.47;;;13.02;;
74473;SDS011;62922;-6.168;106.796;2022-11-25T02:38:37;33.10;;;12.68;;
74473;SDS011;62922;-6.168;106.796;2022-11-25T02:41:10;31.63;;;11.55;;
74473;SDS011;62922;-6.168;106.796;2022-11-25T02:43:40;32.03;;;11.55;;
74473;SDS011;62922;-6.168;106.796;2022-11-25T02:46:10;28.90;;;11.30;;
74473;SDS011;62922;-6.168;106.796;2022-11-25T02:48:39;28.27;;;11.20;;
74473;SDS011;62922;-6.168;106.796;2022-11-25T02:51:07;27.10;;;11.07;;
74473;SDS011;62922;-6.168;106.796;2022-11-25T02:53:35;28.13;;;10.90;;
74473;SDS011;62922;-6.168;106.796;2022-11-25T02:56:02;37.15;;;11.68;;
74473;SDS011;62922;-6.168;106.796;2022-11-25T02:58:29;32.75;;;10.85;;
74473;SDS011;62922;-6.168;106.796;2022-11-25T03:00:55;38.97;;;12.73;;
74473;SDS011;62922;-6.168;106.796;2022-11-25T03:03:22;34.75;;;11.98;;
74473;SDS011;62922;-6.168;106.796;2022-11-25T03:05:51;33.08;;;12.10;;
74473;SDS011;62922;-6.168;106.796;2022-11-25T03:08:17;31.55;;;11.63;;
74473;SDS011;62922;-6.168;106.796;2022-11-25T03:10:43;33.72;;;12.27;;
74473;SDS011;62922;-6.168;106.796;2022-11-25T03:13:10;30.50;;;10.65;;
74473;SDS011;62922;-6.168;106.796;2022-11-25T03:15:37;29.77;;;12.15;;
74473;SDS011;62922;-6.168;106.796;2022-11-25T03:18:04;32.53;;;12.65;;
74473;SDS011;62922;-6.168;106.796;2022-11-25T03:20:33;34.95;;;11.85;;
74473;SDS011;62922;-6.168;106.796;2022-11-25T03:23:17;30.23;;;10.90;;
74473;SDS011;62922;-6.168;106.796;2022-11-25T03:25:44;26.10;;;10.77;;
74473;SDS011;62922;-6.168;106.796;2022-11-25T03:28:10;28.98;;;10.50;;
74473;SDS011;62922;-6.168;106.796;2022-11-25T03:30:37;30.08;;;11.00;;
74473;SDS011;62922;-6.168;106.796;2022-11-25T03:33:03;28.20;;;10.52;;
74473;SDS011;62922;-6.168;106.796;2022-11-25T03:35:30;24.45;;;9.93;;
74473;SDS011;62922;-6.168;106.796;2022-11-25T03:37:56;27.38;;;11.05;;
74473;SDS011;62922;-6.168;106.796;2022-11-25T03:40:22;33.53;;;13.05;;
74473;SDS011;62922;-6.168;106.796;2022-11-25T03:42:49;32.45;;;12.55;;
74473;SDS011;62922;-6.168;106.796;2022-11-25T03:45:18;34.30;;;13.45;;
74473;SDS011;62922;-6.168;106.796;2022-11-25T03:47:44;31.92;;;13.45;;
74473;SDS011;62922;-6.168;106.796;2022-11-25T03:50:13;40.72;;;14.38;;
74473;SDS011;62922;-6.168;106.796;2022-11-25T03:52:40;32.50;;;14.15;;
74473;SDS011;62922;-6.168;106.796;2022-11-25T03:55:07;43.95;;;13.88;;
74473;SDS011;62922;-6.168;106.796;2022-11-25T03:57:34;37.08;;;14.60;;
74473;SDS011;62922;-6.168;106.796;2022-11-25T04:00:01;44.75;;;15.02;;
74473;SDS011;62922;-6.168;106.796;2022-11-25T04:02:28;48.63;;;16.52;;
74473;SDS011;62922;-6.168;106.796;2022-11-25T04:04:55;45.90;;;16.20;;
74473;SDS011;62922;-6.168;106.796;2022-11-25T04:07:21;45.30;;;16.05;;
74473;SDS011;62922;-6.168;106.796;2022-11-25T04:09:47;45.88;;;16.25;;
74473;SDS011;62922;-6.168;106.796;2022-11-25T04:12:14;45.83;;;16.58;;
74473;SDS011;62922;-6.168;106.796;2022-11-25T04:14:42;46.35;;;16.25;;
74473;SDS011;62922;-6.168;106.796;2022-11-25T04:17:09;43.65;;;15.68;;
74473;SDS011;62922;-6.168;106.796;2022-11-25T04:19:35;42.40;;;15.60;;
74473;SDS011;62922;-6.168;106.796;2022-11-25T04:22:03;44.63;;;14.43;;
74473;SDS011;62922;-6.168;106.796;2022-11-25T04:24:32;52.08;;;15.23;;
74473;SDS011;62922;-6.168;106.796;2022-11-25T04:26:58;44.70;;;16.52;;
74473;SDS011;62922;-6.168;106.796;2022-11-25T04:29:25;40.85;;;18.05;;
74473;SDS011;62922;-6.168;106.796;2022-11-25T04:31:51;41.42;;;16.42;;
74473;SDS011;62922;-6.168;106.796;2022-11-25T04:34:17;47.13;;;19.48;;
74473;SDS011;62922;-6.168;106.796;2022-11-25T04:36:44;45.95;;;20.33;;
74473;SDS011;62922;-6.168;106.796;2022-11-25T04:39:10;40.78;;;19.55;;
74473;SDS011;62922;-6.168;106.796;2022-11-25T04:41:39;43.00;;;17.77;;
74473;SDS011;62922;-6.168;106.796;2022-11-25T04:44:05;38.17;;;18.85;;
74473;SDS011;62922;-6.168;106.796;2022-11-25T04:46:33;37.55;;;19.63;;
74473;SDS011;62922;-6.168;106.796;2022-11-25T04:49:04;43.45;;;19.23;;
74473;SDS011;62922;-6.168;106.796;2022-11-25T04:51:32;42.25;;;20.52;;
74473;SDS011;62922;-6.168;106.796;2022-11-25T04:54:01;44.13;;;21.40;;
74473;SDS011;62922;-6.168;106.796;2022-11-25T04:56:27;42.90;;;20.08;;
74473;SDS011;62922;-6.168;106.796;2022-11-25T04:58:53;40.10;;;19.70;;
74473;SDS011;62922;-6.168;106.796;2022-11-25T05:01:22;33.95;;;18.50;;
74473;SDS011;62922;-6.168;106.796;2022-11-25T05:03:49;36.08;;;18.27;;
74473;SDS011;62922;-6.168;106.796;2022-11-25T05:06:15;43.13;;;18.33;;
74473;SDS011;62922;-6.168;106.796;2022-11-25T05:08:41;41.33;;;18.10;;
74473;SDS011;62922;-6.168;106.796;2022-11-25T05:11:07;36.35;;;16.92;;
74473;SDS011;62922;-6.168;106.796;2022-11-25T05:13:34;37.67;;;16.88;;
74473;SDS011;62922;-6.168;106.796;2022-11-25T05:16:00;38.40;;;17.63;;
74473;SDS011;62922;-6.168;106.796;2022-11-25T05:18:26;41.08;;;17.27;;
74473;SDS011;62922;-6.168;106.796;2022-11-25T05:20:53;46.75;;;17.15;;
74473;SDS011;62922;-6.168;106.796;2022-11-25T05:23:19;55.30;;;18.20;;
74473;SDS011;62922;-6.168;106.796;2022-11-25T05:25:45;73.20;;;19.60;;
74473;SDS011;62922;-6.168;106.796;2022-11-25T05:28:11;70.30;;;20.55;;
74473;SDS011;62922;-6.168;106.796;2022-11-25T05:30:38;99.00;;;22.08;;
74473;SDS011;62922;-6.168;106.796;2022-11-25T05:33:04;99.40;;;22.58;;
74473;SDS011;62922;-6.168;106.796;2022-11-25T05:35:30;81.40;;;21.52;;
74473;SDS011;62922;-6.168;106.796;2022-11-25T05:58:16;55.33;;;20.05;;
74473;SDS011;62922;-6.168;106.796;2022-11-25T06:00:43;44.58;;;18.10;;
74473;SDS011;62922;-6.168;106.796;2022-11-25T06:03:09;37.42;;;15.77;;
74473;SDS011;62922;-6.168;106.796;2022-11-25T06:05:35;39.35;;;16.13;;
74473;SDS011;62922;-6.168;106.796;2022-11-25T06:08:02;38.47;;;14.45;;
74473;SDS011;62922;-6.168;106.796;2022-11-25T06:10:29;39.42;;;14.00;;
74473;SDS011;62922;-6.168;106.796;2022-11-25T06:12:55;32.75;;;12.73;;
74473;SDS011;62922;-6.168;106.796;2022-11-25T06:15:21;33.25;;;12.63;;
74473;SDS011;62922;-6.168;106.796;2022-11-25T06:17:47;31.65;;;12.45;;
74473;SDS011;62922;-6.168;106.796;2022-11-25T06:20:14;30.45;;;10.82;;
74473;SDS011;62922;-6.168;106.796;2022-11-25T06:22:40;31.30;;;11.88;;
74473;SDS011;62922;-6.168;106.796;2022-11-25T06:25:07;28.27;;;10.95;;
74473;SDS011;62922;-6.168;106.796;2022-11-25T06:27:36;35.50;;;14.18;;
74473;SDS011;62922;-6.168;106.796;2022-11-25T06:30:02;57.47;;;26.00;;
74473;SDS011;62922;-6.168;106.796;2022-11-25T06:32:32;62.90;;;28.95;;
74473;SDS011;62922;-6.168;106.796;2022-11-25T06:34:58;50.17;;;25.40;;
74473;SDS011;62922;-6.168;106.796;2022-11-25T06:37:24;50.90;;;24.90;;
74473;SDS011;62922;-6.168;106.796;2022-11-25T06:39:53;51.25;;;24.80;;
74473;SDS011;62922;-6.168;106.796;2022-11-25T06:42:19;50.95;;;23.15;;
74473;SDS011;62922;-6.168;106.796;2022-11-25T06:44:45;47.03;;;21.02;;
74473;SDS011;62922;-6.168;106.796;2022-11-25T06:47:12;42.47;;;19.67;;
74473;SDS011;62922;-6.168;106.796;2022-11-25T06:49:38;42.83;;;18.65;;
74473;SDS011;62922;-6.168;106.796;2022-11-25T06:52:04;39.83;;;16.33;;
74473;SDS011;62922;-6.168;106.796;2022-11-25T06:54:31;33.15;;;15.38;;
74473;SDS011;62922;-6.168;106.796;2022-11-25T06:57:00;53.35;;;16.92;;
74473;SDS011;62922;-6.168;106.796;2022-11-25T06:59:29;43.28;;;20.15;;
74473;SDS011;62922;-6.168;106.796;2022-11-25T07:01:56;49.08;;;22.23;;
74473;SDS011;62922;-6.168;106.796;2022-11-25T07:04:23;44.55;;;20.02;;
74473;SDS011;62922;-6.168;106.796;2022-11-25T07:06:49;35.30;;;16.65;;
74473;SDS011;62922;-6.168;106.796;2022-11-25T07:09:15;34.05;;;13.15;;
74473;SDS011;62922;-6.168;106.796;2022-11-25T07:11:43;30.42;;;12.80;;
74473;SDS011;62922;-6.168;106.796;2022-11-25T07:14:11;31.08;;;13.18;;
74473;SDS011;62922;-6.168;106.796;2022-11-25T07:16:39;32.13;;;12.88;;
74473;SDS011;62922;-6.168;106.796;2022-11-25T07:19:07;28.13;;;11.43;;
74473;SDS011;62922;-6.168;106.796;2022-11-25T07:21:35;27.95;;;11.43;;
74473;SDS011;62922;-6.168;106.796;2022-11-25T07:24:03;31.75;;;11.95;;
74473;SDS011;62922;-6.168;106.796;2022-11-25T07:26:32;31.35;;;11.60;;
74473;SDS011;62922;-6.168;106.796;2022-11-25T07:29:04;29.55;;;11.98;;
74473;SDS011;62922;-6.168;106.796;2022-11-25T07:31:35;33.70;;;12.20;;
74473;SDS011;62922;-6.168;106.796;2022-11-25T07:34:08;30.23;;;11.68;;
74473;SDS011;62922;-6.168;106.796;2022-11-25T07:36:34;31.30;;;11.45;;
74473;SDS011;62922;-6.168;106.796;2022-11-25T07:39:03;30.02;;;11.18;;
74473;SDS011;62922;-6.168;106.796;2022-11-25T07:41:31;30.20;;;11.23;;
74473;SDS011;62922;-6.168;106.796;2022-11-25T07:43:59;26.98;;;10.77;;
74473;SDS011;62922;-6.168;106.796;2022-11-25T07:46:28;33.30;;;11.25;;
74473;SDS011;62922;-6.168;106.796;2022-11-25T07:48:58;31.27;;;11.32;;
74473;SDS011;62922;-6.168;106.796;2022-11-25T07:51:27;42.83;;;13.00;;
74473;SDS011;62922;-6.168;106.796;2022-11-25T07:53:57;40.35;;;11.93;;
74473;SDS011;62922;-6.168;106.796;2022-11-25T07:56:27;29.42;;;10.43;;
74473;SDS011;62922;-6.168;106.796;2022-11-25T07:58:54;35.83;;;11.30;;
74473;SDS011;62922;-6.168;106.796;2022-11-25T08:01:24;30.58;;;10.52;;
74473;SDS011;62922;-6.168;106.796;2022-11-25T08:03:50;28.73;;;10.25;;
74473;SDS011;62922;-6.168;106.796;2022-11-25T08:06:21;33.13;;;10.75;;
74473;SDS011;62922;-6.168;106.796;2022-11-25T08:08:53;27.70;;;9.98;;
74473;SDS011;62922;-6.168;106.796;2022-11-25T08:11:21;26.58;;;9.35;;
74473;SDS011;62922;-6.168;106.796;2022-11-25T08:13:51;31.10;;;10.27;;
74473;SDS011;62922;-6.168;106.796;2022-11-25T08:16:19;28.05;;;8.68;;
74473;SDS011;62922;-6.168;106.796;2022-11-25T08:18:47;29.52;;;10.00;;
74473;SDS011;62922;-6.168;106.796;2022-11-25T08:21:14;31.63;;;9.93;;
74473;SDS011;62922;-6.168;106.796;2022-11-25T08:23:41;27.70;;;9.30;;
74473;SDS011;62922;-6.168;106.796;2022-11-25T08:26:10;24.65;;;8.80;;
74473;SDS011;62922;-6.168;106.796;2022-11-25T08:28:38;33.45;;;9.27;;
74473;SDS011;62922;-6.168;106.796;2022-11-25T08:31:14;27.80;;;8.82;;
74473;SDS011;62922;-6.168;106.796;2022-11-25T08:33:49;26.08;;;8.52;;
74473;SDS011;62922;-6.168;106.796;2022-11-25T08:36:16;26.88;;;8.05;;
74473;SDS011;62922;-6.168;106.796;2022-11-25T08:38:43;27.85;;;8.13;;
74473;SDS011;62922;-6.168;106.796;2022-11-25T08:41:15;25.45;;;8.25;;
74473;SDS011;62922;-6.168;106.796;2022-11-25T08:44:02;30.55;;;8.40;;
74473;SDS011;62922;-6.168;106.796;2022-11-25T08:46:33;22.88;;;8.00;;
74473;SDS011;62922;-6.168;106.796;2022-11-25T08:49:02;25.27;;;8.27;;
74473;SDS011;62922;-6.168;106.796;2022-11-25T08:51:30;21.23;;;8.10;;
74473;SDS011;62922;-6.168;106.796;2022-11-25T08:53:57;24.73;;;8.55;;
74473;SDS011;62922;-6.168;106.796;2022-11-25T08:56:24;26.83;;;8.57;;
74473;SDS011;62922;-6.168;106.796;2022-11-25T08:58:51;25.17;;;7.97;;
74473;SDS011;62922;-6.168;106.796;2022-11-25T09:01:18;27.40;;;8.23;;
74473;SDS011;62922;-6.168;106.796;2022-11-25T09:03:46;25.98;;;8.13;;
74473;SDS011;62922;-6.168;106.796;2022-11-25T09:06:14;22.77;;;8.43;;
74473;SDS011;62922;-6.168;106.796;2022-11-25T09:08:41;24.98;;;8.48;;
74473;SDS011;62922;-6.168;106.796;2022-11-25T09:11:09;30.88;;;8.27;;
74473;SDS011;62922;-6.168;106.796;2022-11-25T09:13:35;29.65;;;8.02;;
74473;SDS011;62922;-6.168;106.796;2022-11-25T09:16:02;26.13;;;7.93;;
74473;SDS011;62922;-6.168;106.796;2022-11-25T09:18:28;25.00;;;7.70;;
74473;SDS011;62922;-6.168;106.796;2022-11-25T09:20:56;21.80;;;7.25;;
74473;SDS011;62922;-6.168;106.796;2022-11-25T09:23:24;28.27;;;8.55;;
74473;SDS011;62922;-6.168;106.796;2022-11-25T09:28:19;25.40;;;7.50;;
74473;SDS011;62922;-6.168;106.796;2022-11-25T09:30:46;29.30;;;8.43;;
74473;SDS011;62922;-6.168;106.796;2022-11-25T09:33:13;26.77;;;7.38;;
74473;SDS011;62922;-6.168;106.796;2022-11-25T09:35:39;24.00;;;7.07;;
74473;SDS011;62922;-6.168;106.796;2022-11-25T09:38:06;24.73;;;7.38;;
74473;SDS011;62922;-6.168;106.796;2022-11-25T09:40:34;21.98;;;7.07;;
74473;SDS011;62922;-6.168;106.796;2022-11-25T09:53:55;24.02;;;7.00;;
74473;SDS011;62922;-6.168;106.796;2022-11-25T09:56:18;28.23;;;7.55;;
74473;SDS011;62922;-6.168;106.796;2022-11-25T09:58:57;25.23;;;7.00;;
74473;SDS011;62922;-6.168;106.796;2022-11-25T10:01:28;30.25;;;7.88;;
74473;SDS011;62922;-6.168;106.796;2022-11-25T10:04:04;28.52;;;7.38;;
74473;SDS011;62922;-6.168;106.796;2022-11-25T10:06:42;24.20;;;7.10;;
74473;SDS011;62922;-6.168;106.796;2022-11-25T10:09:14;28.48;;;6.68;;
74473;SDS011;62922;-6.168;106.796;2022-11-25T10:21:49;25.10;;;6.93;;
74473;SDS011;62922;-6.168;106.796;2022-11-25T10:24:16;27.65;;;8.18;;
74473;SDS011;62922;-6.168;106.796;2022-11-25T10:26:50;24.52;;;8.05;;
74473;SDS011;62922;-6.168;106.796;2022-11-25T10:29:30;25.42;;;9.30;;
74473;SDS011;62922;-6.168;106.796;2022-11-25T10:32:10;25.98;;;9.05;;
74473;SDS011;62922;-6.168;106.796;2022-11-25T10:35:04;34.55;;;10.48;;
74473;SDS011;62922;-6.168;106.796;2022-11-25T10:37:38;29.45;;;9.63;;
74473;SDS011;62922;-6.168;106.796;2022-11-25T10:40:12;36.75;;;10.75;;
74473;SDS011;62922;-6.168;106.796;2022-11-25T10:42:41;35.08;;;10.80;;
74473;SDS011;62922;-6.168;106.796;2022-11-25T10:45:08;40.88;;;11.13;;
74473;SDS011;62922;-6.168;106.796;2022-11-25T10:57:41;26.63;;;10.45;;
74473;SDS011;62922;-6.168;106.796;2022-11-25T11:00:22;35.50;;;11.73;;
74473;SDS011;62922;-6.168;106.796;2022-11-25T11:02:51;30.83;;;11.43;;
74473;SDS011;62922;-6.168;106.796;2022-11-25T11:05:21;37.53;;;12.70;;
74473;SDS011;62922;-6.168;106.796;2022-11-25T11:07:48;35.92;;;12.65;;
74473;SDS011;62922;-6.168;106.796;2022-11-25T11:10:38;37.05;;;12.80;;
74473;SDS011;62922;-6.168;106.796;2022-11-25T11:13:08;30.33;;;12.45;;
74473;SDS011;62922;-6.168;106.796;2022-11-25T11:15:46;30.63;;;12.77;;
74473;SDS011;62922;-6.168;106.796;2022-11-25T11:20:46;38.22;;;16.13;;
74473;SDS011;62922;-6.168;106.796;2022-11-25T11:23:14;39.53;;;16.52;;
74473;SDS011;62922;-6.168;106.796;2022-11-25T11:26:20;42.88;;;17.15;;
74473;SDS011;62922;-6.168;106.796;2022-11-25T11:31:00;37.22;;;15.73;;
74473;SDS011;62922;-6.168;106.796;2022-11-25T11:33:35;43.10;;;16.60;;
74473;SDS011;62922;-6.168;106.796;2022-11-25T11:38:45;35.72;;;16.35;;
74473;SDS011;62922;-6.168;106.796;2022-11-25T11:48:55;37.30;;;15.88;;
74473;SDS011;62922;-6.168;106.796;2022-11-25T11:54:17;35.50;;;15.20;;
74473;SDS011;62922;-6.168;106.796;2022-11-25T11:56:59;37.83;;;15.52;;
74473;SDS011;62922;-6.168;106.796;2022-11-25T11:59:40;32.53;;;15.68;;
74473;SDS011;62922;-6.168;106.796;2022-11-25T12:04:46;50.03;;;17.30;;
74473;SDS011;62922;-6.168;106.796;2022-11-25T12:10:00;40.47;;;16.77;;
74473;SDS011;62922;-6.168;106.796;2022-11-25T12:12:38;37.90;;;16.27;;
74473;SDS011;62922;-6.168;106.796;2022-11-25T12:15:47;42.28;;;18.42;;
74473;SDS011;62922;-6.168;106.796;2022-11-25T12:17:58;45.97;;;22.20;;
74473;SDS011;62922;-6.168;106.796;2022-11-25T12:23:02;46.65;;;21.58;;
74473;SDS011;62922;-6.168;106.796;2022-11-25T12:25:39;44.92;;;19.35;;
74473;SDS011;62922;-6.168;106.796;2022-11-25T12:33:25;43.15;;;19.77;;
74473;SDS011;62922;-6.168;106.796;2022-11-25T12:48:40;44.00;;;19.90;;
74473;SDS011;62922;-6.168;106.796;2022-11-25T12:53:38;45.17;;;19.05;;
74473;SDS011;62922;-6.168;106.796;2022-11-25T12:56:14;42.15;;;19.65;;
74473;SDS011;62922;-6.168;106.796;2022-11-25T12:59:15;46.58;;;18.75;;
74473;SDS011;62922;-6.168;106.796;2022-11-25T13:16:35;45.95;;;19.27;;
74473;SDS011;62922;-6.168;106.796;2022-11-25T13:19:01;40.50;;;19.40;;
74473;SDS011;62922;-6.168;106.796;2022-11-25T13:21:35;46.13;;;19.17;;
74473;SDS011;62922;-6.168;106.796;2022-11-25T13:26:51;47.10;;;20.00;;
74473;SDS011;62922;-6.168;106.796;2022-11-25T13:34:32;45.75;;;19.90;;
74473;SDS011;62922;-6.168;106.796;2022-11-25T13:37:00;47.97;;;19.95;;
74473;SDS011;62922;-6.168;106.796;2022-11-25T13:39:46;44.15;;;19.58;;
74473;SDS011;62922;-6.168;106.796;2022-11-25T13:44:49;43.17;;;20.63;;
74473;SDS011;62922;-6.168;106.796;2022-11-25T13:47:40;43.78;;;20.20;;
74473;SDS011;62922;-6.168;106.796;2022-11-25T13:55:23;43.65;;;19.80;;
74473;SDS011;62922;-6.168;106.796;2022-11-25T14:11:04;45.85;;;19.38;;
74473;SDS011;62922;-6.168;106.796;2022-11-25T14:18:29;42.22;;;17.38;;
74473;SDS011;62922;-6.168;106.796;2022-11-25T14:21:15;44.40;;;17.13;;
74473;SDS011;62922;-6.168;106.796;2022-11-25T14:26:27;37.60;;;15.00;;
74473;SDS011;62922;-6.168;106.796;2022-11-25T14:28:59;36.45;;;15.50;;
74473;SDS011;62922;-6.168;106.796;2022-11-25T14:31:48;35.28;;;14.07;;
74473;SDS011;62922;-6.168;106.796;2022-11-25T14:37:09;136.43;;;22.83;;
74473;SDS011;62922;-6.168;106.796;2022-11-25T14:42:13;125.85;;;23.00;;
74473;SDS011;62922;-6.168;106.796;2022-11-25T14:47:15;122.45;;;22.52;;
74473;SDS011;62922;-6.168;106.796;2022-11-25T14:49:50;116.40;;;26.35;;
74473;SDS011;62922;-6.168;106.796;2022-11-25T14:52:22;98.47;;;29.30;;
74473;SDS011;62922;-6.168;106.796;2022-11-25T14:54:52;93.25;;;32.22;;
74473;SDS011;62922;-6.168;106.796;2022-11-25T14:57:21;99.88;;;36.22;;
74473;SDS011;62922;-6.168;106.796;2022-11-25T14:59:53;106.40;;;37.83;;
74473;SDS011;62922;-6.168;106.796;2022-11-25T15:02:26;86.45;;;35.47;;
74473;SDS011;62922;-6.168;106.796;2022-11-25T15:05:19;93.57;;;41.45;;
74473;SDS011;62922;-6.168;106.796;2022-11-25T15:07:52;92.00;;;45.72;;
74473;SDS011;62922;-6.168;106.796;2022-11-25T15:12:55;95.03;;;48.20;;
74473;SDS011;62922;-6.168;106.796;2022-11-25T15:15:22;91.80;;;51.85;;
74473;SDS011;62922;-6.168;106.796;2022-11-25T15:17:54;94.97;;;52.17;;
74473;SDS011;62922;-6.168;106.796;2022-11-25T15:20:20;95.90;;;53.40;;
74473;SDS011;62922;-6.168;106.796;2022-11-25T15:22:51;93.28;;;55.65;;
74473;SDS011;62922;-6.168;106.796;2022-11-25T15:25:19;98.75;;;53.45;;
74473;SDS011;62922;-6.168;106.796;2022-11-25T15:27:51;93.78;;;54.40;;
74473;SDS011;62922;-6.168;106.796;2022-11-25T15:32:48;94.00;;;54.80;;
74473;SDS011;62922;-6.168;106.796;2022-11-25T15:35:18;100.53;;;54.47;;
74473;SDS011;62922;-6.168;106.796;2022-11-25T15:37:47;85.68;;;50.38;;
74473;SDS011;62922;-6.168;106.796;2022-11-25T15:42:46;87.13;;;50.42;;
74473;SDS011;62922;-6.168;106.796;2022-11-25T15:45:16;85.32;;;50.88;;
74473;SDS011;62922;-6.168;106.796;2022-11-25T15:47:46;77.07;;;47.70;;
74473;SDS011;62922;-6.168;106.796;2022-11-25T15:52:47;58.47;;;36.15;;
74473;SDS011;62922;-6.168;106.796;2022-11-25T15:55:23;70.80;;;36.42;;
74473;SDS011;62922;-6.168;106.796;2022-11-25T15:57:57;57.35;;;31.13;;
74473;SDS011;62922;-6.168;106.796;2022-11-25T16:00:37;49.58;;;29.27;;
74473;SDS011;62922;-6.168;106.796;2022-11-25T16:05:37;60.70;;;35.15;;
74473;SDS011;62922;-6.168;106.796;2022-11-25T16:08:23;60.83;;;34.90;;
74473;SDS011;62922;-6.168;106.796;2022-11-25T16:10:54;58.85;;;30.88;;
74473;SDS011;62922;-6.168;106.796;2022-11-25T16:18:29;59.30;;;34.55;;
74473;SDS011;62922;-6.168;106.796;2022-11-25T16:20:58;58.50;;;36.20;;
74473;SDS011;62922;-6.168;106.796;2022-11-25T16:23:28;65.32;;;36.88;;
74473;SDS011;62922;-6.168;106.796;2022-11-25T16:26:03;67.03;;;37.40;;
74473;SDS011;62922;-6.168;106.796;2022-11-25T16:28:31;61.13;;;33.50;;
74473;SDS011;62922;-6.168;106.796;2022-11-25T16:30:57;49.47;;;29.17;;
74473;SDS011;62922;-6.168;106.796;2022-11-25T16:33:25;51.97;;;29.98;;
74473;SDS011;62922;-6.168;106.796;2022-11-25T16:35:52;46.25;;;26.60;;
74473;SDS011;62922;-6.168;106.796;2022-11-25T16:38:20;43.85;;;25.70;;
74473;SDS011;62922;-6.168;106.796;2022-11-25T16:40:46;47.17;;;25.33;;
74473;SDS011;62922;-6.168;106.796;2022-11-25T16:43:20;41.80;;;22.90;;
74473;SDS011;62922;-6.168;106.796;2022-11-25T16:45:50;39.30;;;22.58;;
74473;SDS011;62922;-6.168;106.796;2022-11-25T16:48:20;42.20;;;21.98;;
74473;SDS011;62922;-6.168;106.796;2022-11-25T16:50:48;36.28;;;19.65;;
74473;SDS011;62922;-6.168;106.796;2022-11-25T16:53:15;41.33;;;20.67;;
74473;SDS011;62922;-6.168;106.796;2022-11-25T16:55:43;39.03;;;19.70;;
74473;SDS011;62922;-6.168;106.796;2022-11-25T17:00:43;35.22;;;17.67;;
74473;SDS011;62922;-6.168;106.796;2022-11-25T17:03:15;39.13;;;17.63;;
74473;SDS011;62922;-6.168;106.796;2022-11-25T17:05:42;36.90;;;17.50;;
74473;SDS011;62922;-6.168;106.796;2022-11-25T17:08:10;38.65;;;17.17;;
74473;SDS011;62922;-6.168;106.796;2022-11-25T17:10:38;31.40;;;15.60;;
74473;SDS011;62922;-6.168;106.796;2022-11-25T17:15:41;37.53;;;17.10;;
74473;SDS011;62922;-6.168;106.796;2022-11-25T17:18:09;35.97;;;16.40;;
74473;SDS011;62922;-6.168;106.796;2022-11-25T17:20:38;39.63;;;16.38;;
74473;SDS011;62922;-6.168;106.796;2022-11-25T17:23:09;36.00;;;16.17;;